Time;durP1;ratioP1;P1;durP2;ratioP2;P2;SDS_P1;SDS_P2;PMS_P1;PMS_P2;Temp;Humidity;BMP_temperature;BMP_pressure;BME280_temperature;BME280_humidity;BME280_pressure;Samples;Min_cycle;Max_cycle;Signal;HPM_P1;HPM_P2
2020/12/14 00:00:35;;;;;;;5.93;5.43;;;2.00;99.90;;;;;;5030989;28;20212;-72
2020/12/14 00:03:02;;;;;;;6.30;5.60;;;1.90;99.90;;;;;;5030631;28;20245;-72
2020/12/14 00:05:28;;;;;;;5.57;4.70;;;1.80;99.90;;;;;;5030775;28;20681;-72
2020/12/14 00:07:55;;;;;;;7.70;5.30;;;1.80;99.90;;;;;;5031202;28;20209;-72
2020/12/14 00:10:21;;;;;;;5.47;4.65;;;1.90;99.90;;;;;;5030702;28;20197;-72
2020/12/14 00:12:47;;;;;;;5.30;4.68;;;1.80;99.90;;;;;;5030280;28;20225;-72
2020/12/14 00:15:14;;;;;;;5.90;5.30;;;1.70;99.90;;;;;;5030699;28;20229;-72
2020/12/14 00:17:40;;;;;;;5.40;4.90;;;1.70;99.90;;;;;;5030922;28;20947;-72
2020/12/14 00:20:06;;;;;;;7.78;5.07;;;1.60;99.90;;;;;;5026402;28;20231;-72
2020/12/14 00:22:33;;;;;;;5.43;4.68;;;1.50;99.90;;;;;;5029861;28;20696;-71
2020/12/14 00:25:01;;;;;;;5.80;4.72;;;1.50;99.90;;;;;;5030896;28;20208;-72
2020/12/14 00:27:27;;;;;;;4.80;4.25;;;1.50;99.90;;;;;;5030273;28;20691;-72
2020/12/14 00:29:54;;;;;;;4.85;4.43;;;1.50;99.90;;;;;;5030772;28;20213;-72
2020/12/14 00:32:20;;;;;;;5.20;4.68;;;1.50;99.90;;;;;;5029633;28;20228;-71
2020/12/14 00:34:46;;;;;;;5.82;4.82;;;1.60;99.90;;;;;;5030633;28;20237;-71
2020/12/14 00:37:12;;;;;;;6.20;5.03;;;1.50;99.90;;;;;;5030607;28;20574;-71
2020/12/14 00:39:39;;;;;;;5.65;4.82;;;1.50;99.90;;;;;;5030275;28;20206;-71
2020/12/14 00:42:06;;;;;;;5.50;4.80;;;1.50;99.90;;;;;;5029924;28;20229;-72
2020/12/14 00:44:32;;;;;;;5.25;4.75;;;1.50;99.90;;;;;;5030057;28;20283;-71
2020/12/14 00:46:58;;;;;;;7.03;5.25;;;1.50;99.90;;;;;;5030193;28;20757;-71
2020/12/14 00:49:24;;;;;;;5.95;5.28;;;1.50;99.90;;;;;;5029819;28;20197;-71
2020/12/14 00:51:51;;;;;;;5.30;4.80;;;1.50;99.90;;;;;;5029277;28;20759;-71
2020/12/14 00:54:17;;;;;;;5.00;4.50;;;1.50;99.90;;;;;;5030063;28;20231;-71
2020/12/14 00:56:44;;;;;;;5.30;4.80;;;1.50;99.90;;;;;;5029895;28;20688;-71
2020/12/14 00:59:11;;;;;;;6.93;4.95;;;1.50;99.90;;;;;;5030247;28;20201;-71
2020/12/14 01:01:37;;;;;;;7.43;5.70;;;1.40;99.90;;;;;;5029468;28;20209;-70
2020/12/14 01:04:04;;;;;;;6.05;5.47;;;1.50;99.90;;;;;;5029829;28;20218;-71
2020/12/14 01:06:30;;;;;;;5.10;4.68;;;1.50;99.90;;;;;;5029733;28;20202;-71
2020/12/14 01:08:56;;;;;;;5.40;4.90;;;1.60;99.90;;;;;;5029754;28;20209;-71
2020/12/14 01:11:27;;;;;;;5.55;4.95;;;1.60;99.90;;;;;;5029518;28;20210;-71
2020/12/14 01:13:53;;;;;;;6.85;5.03;;;1.60;99.90;;;;;;5029085;28;20236;-71
2020/12/14 01:16:21;;;;;;;6.82;4.85;;;1.50;99.90;;;;;;5029557;28;20206;-71
2020/12/14 01:18:47;;;;;;;6.28;5.00;;;1.50;99.90;;;;;;5029691;28;20206;-71
2020/12/14 01:21:13;;;;;;;5.95;4.80;;;1.40;99.90;;;;;;5029439;28;20205;-72
2020/12/14 01:23:39;;;;;;;6.93;4.57;;;1.30;99.90;;;;;;5029087;28;20229;-72
2020/12/14 01:26:05;;;;;;;5.20;4.70;;;1.10;99.90;;;;;;5029433;28;20198;-71
2020/12/14 01:28:31;;;;;;;6.00;4.90;;;1.10;99.90;;;;;;5029381;28;20221;-72
2020/12/14 01:30:58;;;;;;;7.97;5.40;;;1.00;99.90;;;;;;5029153;28;20206;-71
2020/12/14 01:33:25;;;;;;;5.70;4.88;;;0.90;99.90;;;;;;5029055;28;20225;-71
2020/12/14 01:35:51;;;;;;;5.20;4.70;;;0.90;99.90;;;;;;5029547;28;20226;-72
2020/12/14 01:38:17;;;;;;;5.50;4.72;;;0.80;99.90;;;;;;5029152;28;20205;-72
2020/12/14 01:40:43;;;;;;;6.05;4.82;;;0.90;99.90;;;;;;5029475;28;20205;-72
2020/12/14 01:43:09;;;;;;;5.93;4.88;;;0.90;99.90;;;;;;5028765;28;20218;-72
2020/12/14 01:45:36;;;;;;;9.07;5.40;;;0.90;99.90;;;;;;5029140;28;20688;-72
2020/12/14 01:48:05;;;;;;;6.00;5.40;;;0.90;99.90;;;;;;5029161;28;20209;-72
2020/12/14 01:50:33;;;;;;;6.63;5.65;;;0.90;99.90;;;;;;5029185;28;20210;-71
2020/12/14 01:53:00;;;;;;;6.78;4.90;;;0.90;99.90;;;;;;5028959;28;20218;-71
2020/12/14 01:55:32;;;;;;;6.15;5.28;;;0.90;99.90;;;;;;5028893;28;20221;-72
2020/12/14 01:57:58;;;;;;;7.53;4.95;;;0.90;99.90;;;;;;5029379;28;20240;-72
2020/12/14 02:00:24;;;;;;;6.57;5.53;;;0.90;99.90;;;;;;5027909;28;20201;-72
2020/12/14 02:02:50;;;;;;;8.88;5.40;;;0.90;99.90;;;;;;5028299;28;20230;-72
2020/12/14 02:05:16;;;;;;;9.43;5.32;;;0.80;99.90;;;;;;5028832;28;20206;-72
2020/12/14 02:07:43;;;;;;;8.50;4.82;;;0.80;99.90;;;;;;5029146;28;20209;-72
2020/12/14 02:10:10;;;;;;;5.55;4.93;;;0.80;99.90;;;;;;5029043;28;20696;-72
2020/12/14 02:12:36;;;;;;;6.70;5.97;;;0.70;99.90;;;;;;5028274;28;20234;-72
2020/12/14 02:15:03;;;;;;;6.35;5.35;;;0.70;99.90;;;;;;5029287;28;20236;-72
2020/12/14 02:17:29;;;;;;;7.05;5.15;;;0.70;99.90;;;;;;5029011;28;20205;-72
2020/12/14 02:19:55;;;;;;;5.50;5.00;;;0.70;99.90;;;;;;5029390;28;20202;-72
2020/12/14 02:22:23;;;;;;;5.85;5.18;;;0.70;99.90;;;;;;5028005;28;20225;-71
2020/12/14 02:24:54;;;;;;;5.43;4.50;;;0.60;99.90;;;;;;5028988;28;20567;-72
2020/12/14 02:27:20;;;;;;;6.95;5.30;;;0.70;99.90;;;;;;5028763;28;20201;-72
2020/12/14 02:29:48;;;;;;;5.45;4.47;;;0.80;99.90;;;;;;5028513;28;20214;-72
2020/12/14 02:32:15;;;;;;;5.45;4.95;;;0.80;99.90;;;;;;5028046;28;20242;-72
2020/12/14 02:34:42;;;;;;;5.15;4.60;;;0.80;99.90;;;;;;5028550;28;20218;-71
2020/12/14 02:37:10;;;;;;;5.75;4.53;;;0.80;99.90;;;;;;5029061;28;20205;-71
2020/12/14 02:39:37;;;;;;;5.55;4.93;;;0.90;99.90;;;;;;5028705;28;20205;-72
2020/12/14 02:42:09;;;;;;;5.25;4.75;;;0.90;99.90;;;;;;5028226;28;20205;-71
2020/12/14 02:44:35;;;;;;;6.68;5.03;;;0.90;99.90;;;;;;5028496;28;20577;-72
2020/12/14 02:47:02;;;;;;;6.30;5.55;;;1.00;99.90;;;;;;5028576;28;20669;-72
2020/12/14 02:49:29;;;;;;;5.50;4.82;;;1.00;99.90;;;;;;5028772;28;20202;-71
2020/12/14 02:51:55;;;;;;;7.18;5.95;;;1.10;99.90;;;;;;5027879;28;20202;-72
2020/12/14 02:54:22;;;;;;;8.52;5.45;;;1.10;99.90;;;;;;5028490;28;20233;-71
2020/12/14 02:56:48;;;;;;;7.03;5.55;;;1.20;99.90;;;;;;5028808;28;20202;-72
2020/12/14 02:59:16;;;;;;;5.70;5.20;;;1.20;99.90;;;;;;5028702;28;20217;-72
2020/12/14 03:01:42;;;;;;;5.85;5.25;;;1.30;99.90;;;;;;5028099;28;20201;-72
2020/12/14 03:04:09;;;;;;;6.03;4.85;;;1.30;99.90;;;;;;5027973;28;20226;-71
2020/12/14 03:06:35;;;;;;;6.40;5.40;;;1.30;99.90;;;;;;5028204;28;20210;-71
2020/12/14 03:09:02;;;;;;;6.95;5.43;;;1.30;99.90;;;;;;5028221;28;20206;-71
2020/12/14 03:11:28;;;;;;;5.85;4.88;;;1.30;99.90;;;;;;5029875;28;20212;-71
2020/12/14 03:13:55;;;;;;;5.65;4.95;;;1.30;99.90;;;;;;5031461;28;20229;-71
2020/12/14 03:16:22;;;;;;;5.90;5.30;;;1.40;99.90;;;;;;5031519;28;20201;-72
2020/12/14 03:18:48;;;;;;;5.05;4.40;;;1.40;99.90;;;;;;5032149;28;20570;-72
2020/12/14 03:21:14;;;;;;;6.25;5.70;;;1.40;99.90;;;;;;5031777;28;20206;-72
2020/12/14 03:23:40;;;;;;;6.75;5.45;;;1.40;99.90;;;;;;5031347;28;20244;-72
2020/12/14 03:26:07;;;;;;;6.95;5.18;;;1.40;99.90;;;;;;5031813;28;20221;-71
2020/12/14 03:28:33;;;;;;;6.95;5.70;;;1.40;99.90;;;;;;5031834;28;20209;-72
2020/12/14 03:30:59;;;;;;;6.82;5.65;;;1.50;99.90;;;;;;5031841;28;20213;-72
2020/12/14 03:33:26;;;;;;;6.70;5.75;;;1.50;99.90;;;;;;5031004;28;20222;-72
2020/12/14 03:35:52;;;;;;;6.13;4.85;;;1.50;99.90;;;;;;5031752;28;20591;-71
2020/12/14 03:38:18;;;;;;;5.93;5.07;;;1.50;99.90;;;;;;5031252;28;20202;-72
2020/12/14 03:40:45;;;;;;;5.15;4.47;;;1.50;99.90;;;;;;5031521;28;20563;-72
2020/12/14 03:43:11;;;;;;;5.85;4.68;;;1.40;99.90;;;;;;5030891;28;20232;-71
2020/12/14 03:45:37;;;;;;;7.03;4.93;;;1.30;99.90;;;;;;5031228;28;20205;-72
2020/12/14 03:48:04;;;;;;;5.57;4.68;;;1.20;99.90;;;;;;5031496;28;20205;-72
2020/12/14 03:50:31;;;;;;;5.28;4.78;;;1.10;99.90;;;;;;5031066;28;20580;-72
2020/12/14 03:52:57;;;;;;;6.85;5.00;;;1.10;99.90;;;;;;5030981;28;20257;-72
2020/12/14 03:55:23;;;;;;;4.82;4.32;;;1.10;99.90;;;;;;5031034;28;20229;-72
2020/12/14 03:57:49;;;;;;;5.30;4.75;;;1.00;99.90;;;;;;5031252;28;20213;-71
2020/12/14 04:00:16;;;;;;;6.18;5.00;;;1.00;99.90;;;;;;5031132;28;20209;-71
2020/12/14 04:02:43;;;;;;;8.27;5.13;;;0.90;99.90;;;;;;5030210;28;20648;-72
2020/12/14 04:05:09;;;;;;;4.95;4.47;;;0.90;99.90;;;;;;5031026;28;20677;-71
2020/12/14 04:07:36;;;;;;;6.22;5.20;;;0.90;99.90;;;;;;5030772;28;20212;-71
2020/12/14 04:10:03;;;;;;;5.50;4.90;;;0.90;99.90;;;;;;5031178;28;20206;-71
2020/12/14 04:12:29;;;;;;;5.57;4.95;;;0.90;99.90;;;;;;5030155;28;20218;-71
2020/12/14 04:14:55;;;;;;;9.07;5.10;;;0.90;99.90;;;;;;5030652;28;20232;-71
2020/12/14 04:17:22;;;;;;;6.72;4.60;;;0.90;99.90;;;;;;5030918;28;20214;-71
2020/12/14 04:19:48;;;;;;;6.57;5.32;;;0.90;99.90;;;;;;5030636;28;20206;-71
2020/12/14 04:22:14;;;;;;;5.30;4.35;;;0.80;99.90;;;;;;5029484;28;20221;-71
2020/12/14 04:24:41;;;;;;;9.20;5.40;;;0.80;99.90;;;;;;5030655;28;20202;-71
2020/12/14 04:27:07;;;;;;;6.72;5.25;;;0.80;99.90;;;;;;5030573;28;20230;-71
2020/12/14 04:29:33;;;;;;;6.53;4.55;;;0.80;99.90;;;;;;5030328;28;20198;-71
2020/12/14 04:32:00;;;;;;;5.80;4.50;;;0.80;99.90;;;;;;5029971;28;20209;-71
2020/12/14 04:34:26;;;;;;;5.75;5.18;;;0.80;99.90;;;;;;5030415;28;20209;-70
2020/12/14 04:36:52;;;;;;;6.00;4.88;;;0.80;99.90;;;;;;5030408;28;20242;-71
2020/12/14 04:39:19;;;;;;;6.60;4.93;;;0.70;99.90;;;;;;5030334;28;20573;-71
2020/12/14 04:41:46;;;;;;;8.50;5.10;;;0.70;99.90;;;;;;5010335;28;20206;-71
2020/12/14 04:44:13;;;;;;;6.72;4.90;;;0.70;99.90;;;;;;5010586;28;20198;-71
2020/12/14 04:46:39;;;;;;;5.50;4.80;;;0.70;99.90;;;;;;5010628;28;20210;-71
2020/12/14 04:49:07;;;;;;;6.82;4.85;;;0.70;99.90;;;;;;5010400;28;20202;-70
2020/12/14 04:51:36;;;;;;;5.68;5.13;;;0.80;99.90;;;;;;5010232;28;20206;-70
2020/12/14 04:54:03;;;;;;;7.90;6.00;;;0.80;99.90;;;;;;4998543;28;20223;-71
2020/12/14 04:56:30;;;;;;;6.60;5.28;;;0.80;99.90;;;;;;4990540;28;20234;-72
2020/12/14 04:58:58;;;;;;;8.32;5.10;;;0.90;99.90;;;;;;4991164;28;20594;-72
2020/12/14 05:01:25;;;;;;;6.35;5.55;;;0.90;99.90;;;;;;4990760;28;20203;-72
2020/12/14 05:03:51;;;;;;;7.45;5.43;;;0.90;99.90;;;;;;4990550;28;20237;-72
2020/12/14 05:06:18;;;;;;;7.60;5.70;;;0.90;99.90;;;;;;4990476;28;20202;-72
2020/12/14 05:08:44;;;;;;;7.78;5.90;;;1.00;99.90;;;;;;4990721;28;20630;-72
2020/12/14 05:11:10;;;;;;;7.22;5.88;;;1.00;99.90;;;;;;4990856;28;20580;-73
2020/12/14 05:13:37;;;;;;;9.10;6.55;;;1.00;99.90;;;;;;4991527;28;20233;-72
2020/12/14 05:16:04;;;;;;;8.68;6.32;;;1.00;99.90;;;;;;4991436;28;20223;-72
2020/12/14 05:18:30;;;;;;;7.22;6.53;;;1.00;99.90;;;;;;4990025;28;20207;-73
2020/12/14 05:20:58;;;;;;;7.43;5.60;;;1.00;99.90;;;;;;4990448;28;20207;-72
2020/12/14 05:23:25;;;;;;;9.00;6.90;;;1.00;99.90;;;;;;5080155;23;20251;-76
2020/12/14 05:26:03;;;;;;;8.48;6.35;;;1.00;99.90;;;;;;5028626;28;20197;-76
2020/12/14 05:28:30;;;;;;;7.93;6.28;;;1.10;99.90;;;;;;5029131;28;20206;-76
2020/12/14 05:30:56;;;;;;;8.93;5.90;;;1.10;99.90;;;;;;5027098;28;20209;-76
2020/12/14 05:33:25;;;;;;;7.30;5.93;;;1.10;99.90;;;;;;5028641;28;20233;-76
2020/12/14 05:35:51;;;;;;;9.20;6.88;;;1.10;99.90;;;;;;5028215;28;20230;-75
2020/12/14 05:38:22;;;;;;;9.20;6.75;;;1.10;99.90;;;;;;5029147;28;20212;-75
2020/12/14 05:40:51;;;;;;;10.70;6.15;;;1.10;99.90;;;;;;5029528;28;20233;-76
2020/12/14 05:43:21;;;;;;;8.00;6.47;;;1.10;99.90;;;;;;5028471;28;20222;-76
2020/12/14 05:45:50;;;;;;;9.18;6.60;;;1.10;99.90;;;;;;5029663;28;20209;-76
2020/12/14 05:48:29;;;;;;;7.20;6.00;;;1.10;99.90;;;;;;5029605;28;20517;-75
2020/12/14 05:50:57;;;;;;;9.38;7.00;;;1.10;99.90;;;;;;5029336;28;20201;-74
2020/12/14 05:53:33;;;;;;;8.85;7.60;;;1.10;99.90;;;;;;5027977;28;20438;-74
2020/12/14 05:56:00;;;;;;;10.82;7.53;;;1.20;99.90;;;;;;5029145;28;20696;-75
2020/12/14 05:58:30;;;;;;;8.40;6.90;;;1.20;99.90;;;;;;5028458;28;20687;-76
2020/12/14 06:00:56;;;;;;;7.60;6.80;;;1.30;99.90;;;;;;5028904;28;20198;-76
2020/12/14 06:03:24;;;;;;;8.73;6.60;;;1.20;99.90;;;;;;5027769;28;20234;-75
2020/12/14 06:05:58;;;;;;;10.57;7.80;;;1.30;99.90;;;;;;5029137;28;20205;-75
2020/12/14 06:08:48;;;;;;;10.65;7.20;;;1.30;99.90;;;;;;5028616;28;20520;-75
2020/12/14 06:11:15;;;;;;;9.75;6.68;;;1.30;99.90;;;;;;5028746;28;20220;-76
2020/12/14 06:13:48;;;;;;;11.52;8.38;;;1.30;99.90;;;;;;5027992;28;20232;-75
2020/12/14 06:16:19;;;;;;;8.43;6.82;;;1.30;99.90;;;;;;5028322;28;20225;-75
2020/12/14 06:18:47;;;;;;;9.55;6.45;;;1.30;99.90;;;;;;5028896;28;20568;-75
2020/12/14 06:21:18;;;;;;;10.13;7.47;;;1.40;99.90;;;;;;5028597;28;20216;-75
2020/12/14 06:23:47;;;;;;;10.63;7.38;;;1.40;99.90;;;;;;5028057;28;20316;-75
2020/12/14 06:26:15;;;;;;;13.45;8.48;;;1.40;99.90;;;;;;5028422;28;20213;-75
2020/12/14 06:28:41;;;;;;;11.40;7.45;;;1.50;99.90;;;;;;5028649;28;20259;-75
2020/12/14 06:31:08;;;;;;;10.57;7.35;;;1.50;99.90;;;;;;5028495;28;20267;-76
2020/12/14 06:33:35;;;;;;;9.95;8.10;;;1.40;99.90;;;;;;5027892;28;20568;-76
2020/12/14 06:36:21;;;;;;;10.45;7.43;;;1.40;99.90;;;;;;5028589;28;20720;-76
2020/12/14 06:38:48;;;;;;;10.40;7.75;;;1.40;99.90;;;;;;5028254;28;20699;-76
2020/12/14 06:41:17;;;;;;;10.77;7.25;;;1.40;99.90;;;;;;5028308;28;20244;-76
2020/12/14 06:43:44;;;;;;;11.52;7.97;;;1.40;99.90;;;;;;5027802;28;20232;-75
2020/12/14 06:46:11;;;;;;;12.50;7.97;;;1.40;99.90;;;;;;5030060;28;20550;-76
2020/12/14 06:48:40;;;;;;;10.68;7.57;;;1.40;99.90;;;;;;5031882;28;20213;-75
2020/12/14 06:51:08;;;;;;;9.88;7.35;;;1.50;99.90;;;;;;5032236;28;20205;-76
2020/12/14 06:53:47;;;;;;;9.85;7.28;;;1.50;99.90;;;;;;5031294;28;20226;-76
2020/12/14 06:56:15;;;;;;;10.88;9.13;;;1.50;99.90;;;;;;5032252;28;20774;-76
2020/12/14 06:58:43;;;;;;;10.32;7.90;;;1.50;99.90;;;;;;5031935;28;20213;-76
2020/12/14 07:01:35;;;;;;;10.88;8.55;;;1.50;99.90;;;;;;4983631;28;20230;-76
2020/12/14 07:04:37;;;;;;;12.93;8.35;;;1.50;99.90;;;;;;5010903;28;20214;-76
2020/12/14 07:07:34;;;;;;;13.48;9.25;;;1.60;99.90;;;;;;5011827;28;20210;-76
2020/12/14 07:10:16;;;;;;;11.45;8.50;;;1.50;99.90;;;;;;4950884;29;20208;-76
2020/12/14 07:12:48;;;;;;;12.00;7.80;;;1.50;99.90;;;;;;5002913;28;20226;-76
2020/12/14 07:15:25;;;;;;;12.23;8.02;;;1.50;99.90;;;;;;5012254;28;20584;-76
2020/12/14 07:18:09;;;;;;;13.27;8.30;;;1.60;99.90;;;;;;5011895;28;20209;-76
2020/12/14 07:20:46;;;;;;;9.65;7.05;;;1.60;99.90;;;;;;5011864;28;20206;-76
2020/12/14 07:23:14;;;;;;;11.93;8.18;;;1.60;99.90;;;;;;5011136;28;20241;-76
2020/12/14 07:25:46;;;;;;;11.38;7.90;;;1.60;99.90;;;;;;5011853;28;20570;-76
2020/12/14 07:28:12;;;;;;;11.90;9.70;;;1.60;99.90;;;;;;5012005;28;20202;-75
2020/12/14 07:30:39;;;;;;;12.40;8.60;;;1.60;99.90;;;;;;5011811;28;20566;-76
2020/12/14 07:33:05;;;;;;;9.65;7.97;;;1.60;99.90;;;;;;5011109;28;20218;-76
2020/12/14 07:35:31;;;;;;;11.00;7.95;;;1.60;99.90;;;;;;5011345;28;20721;-75
2020/12/14 07:37:58;;;;;;;16.38;9.32;;;1.60;99.90;;;;;;5011556;28;20236;-76
2020/12/14 07:40:24;;;;;;;11.23;8.00;;;1.60;99.90;;;;;;5011553;28;20214;-77
2020/12/14 07:42:51;;;;;;;11.80;8.00;;;1.60;99.90;;;;;;5011383;28;20226;-75
2020/12/14 07:45:19;;;;;;;16.20;8.73;;;1.60;99.90;;;;;;5011520;28;20204;-76
2020/12/14 07:47:47;;;;;;;12.25;9.35;;;1.60;99.90;;;;;;5011615;28;20198;-76
2020/12/14 07:50:15;;;;;;;11.35;8.38;;;1.70;99.90;;;;;;5011391;28;20568;-76
2020/12/14 07:52:42;;;;;;;13.25;8.85;;;1.70;99.90;;;;;;5010498;28;20709;-76
2020/12/14 07:55:10;;;;;;;12.50;8.43;;;1.80;99.90;;;;;;5000298;28;20332;-76
2020/12/14 07:57:37;;;;;;;13.57;10.23;;;2.10;99.90;;;;;;5009153;28;20202;-75
2020/12/14 08:00:06;;;;;;;9.80;7.40;;;2.60;99.90;;;;;;5010428;28;20462;-75
2020/12/14 08:02:33;;;;;;;10.68;8.40;;;3.50;99.90;;;;;;5008351;28;20277;-76
2020/12/14 08:05:01;;;;;;;11.30;9.32;;;4.50;99.90;;;;;;5009642;28;20203;-76
2020/12/14 08:07:34;;;;;;;9.30;7.30;;;5.40;99.90;;;;;;5000658;28;20393;-76
2020/12/14 08:10:02;;;;;;;8.85;7.55;;;6.30;99.90;;;;;;4995144;28;20214;-76
2020/12/14 08:12:28;;;;;;;7.80;6.60;;;6.90;99.90;;;;;;4990396;28;20648;-76
2020/12/14 08:14:55;;;;;;;9.43;7.55;;;7.40;99.90;;;;;;4991269;28;20225;-76
2020/12/14 08:17:23;;;;;;;9.63;6.50;;;7.60;99.90;;;;;;4995169;28;20213;-76
2020/12/14 08:19:49;;;;;;;7.90;6.32;;;7.40;99.90;;;;;;5010441;28;20329;-76
2020/12/14 08:22:15;;;;;;;8.40;7.25;;;7.20;99.90;;;;;;5009953;28;20226;-76
2020/12/14 08:24:42;;;;;;;8.90;7.05;;;6.90;99.90;;;;;;5010765;28;20670;-76
2020/12/14 08:27:10;;;;;;;8.32;6.50;;;6.50;99.90;;;;;;5010092;28;20221;-76
2020/12/14 08:29:45;;;;;;;7.60;6.45;;;6.20;99.90;;;;;;5010178;28;20305;-76
2020/12/14 08:32:13;;;;;;;7.05;5.90;;;6.10;99.90;;;;;;5009526;28;20221;-76
2020/12/14 08:34:40;;;;;;;8.73;6.72;;;6.10;99.90;;;;;;5010653;28;20297;-76
2020/12/14 08:37:07;;;;;;;7.93;7.13;;;6.20;99.90;;;;;;5010231;28;20203;-76
2020/12/14 08:39:33;;;;;;;7.85;7.05;;;6.50;99.90;;;;;;5010115;28;20370;-76
2020/12/14 08:42:05;;;;;;;8.68;6.72;;;6.80;99.90;;;;;;5009852;28;20342;-76
2020/12/14 08:44:31;;;;;;;8.27;7.38;;;6.90;99.90;;;;;;5010087;28;20198;-76
2020/12/14 08:46:57;;;;;;;10.68;7.68;;;7.00;99.90;;;;;;5010250;28;20210;-76
2020/12/14 08:49:23;;;;;;;9.55;7.22;;;6.70;99.90;;;;;;5010429;28;20209;-76
2020/12/14 08:51:50;;;;;;;8.52;7.60;;;6.40;99.90;;;;;;5009473;28;20203;-76
2020/12/14 08:54:18;;;;;;;11.35;8.23;;;5.90;99.90;;;;;;5010056;28;20297;-75
2020/12/14 08:56:45;;;;;;;7.60;6.80;;;5.40;99.90;;;;;;5010161;28;20254;-76
2020/12/14 08:59:16;;;;;;;9.57;7.68;;;5.00;99.90;;;;;;5009922;28;20203;-77
2020/12/14 09:01:55;;;;;;;8.85;7.32;;;4.70;99.90;;;;;;5009659;28;20203;-76
2020/12/14 09:04:27;;;;;;;9.30;7.18;;;4.50;99.90;;;;;;5009465;28;20696;-76
2020/12/14 09:06:54;;;;;;;9.20;7.38;;;4.30;99.90;;;;;;5009227;28;20552;-76
2020/12/14 09:09:29;;;;;;;11.27;8.43;;;4.20;99.90;;;;;;5008589;28;20230;-76
2020/12/14 09:11:56;;;;;;;8.75;7.13;;;4.30;99.90;;;;;;5009373;28;20212;-76
2020/12/14 09:14:23;;;;;;;9.90;7.40;;;4.40;99.90;;;;;;5009320;28;20202;-76
2020/12/14 09:16:52;;;;;;;8.65;7.20;;;4.60;99.90;;;;;;5004544;28;20494;-76
2020/12/14 09:19:22;;;;;;;9.35;8.02;;;4.80;99.90;;;;;;5009605;28;20206;-76
2020/12/14 09:21:49;;;;;;;8.40;7.20;;;5.00;99.90;;;;;;5008376;28;20202;-76
2020/12/14 09:24:19;;;;;;;10.35;6.88;;;5.80;99.90;;;;;;5009582;28;20210;-76
2020/12/14 09:26:46;;;;;;;7.82;6.40;;;7.90;99.90;;;;;;5009427;28;20198;-77
2020/12/14 09:29:13;;;;;;;6.85;6.00;;;10.20;99.90;;;;;;5009182;28;20209;-76
2020/12/14 09:31:47;;;;;;;7.38;6.40;;;12.60;99.90;;;;;;5009008;28;20215;-76
2020/12/14 09:34:13;;;;;;;6.43;5.45;;;14.30;99.90;;;;;;5009403;28;20573;-76
2020/12/14 09:36:40;;;;;;;6.80;6.10;;;15.60;99.90;;;;;;5009117;28;20249;-76
2020/12/14 09:39:06;;;;;;;7.47;6.20;;;16.40;99.90;;;;;;5008728;28;20330;-76
2020/12/14 09:41:33;;;;;;;6.90;6.20;;;17.10;99.10;;;;;;5009029;28;20570;-76
2020/12/14 09:43:59;;;;;;;6.00;5.40;;;17.60;96.40;;;;;;5009048;28;20257;-76
2020/12/14 09:46:26;;;;;;;7.10;6.40;;;16.80;96.40;;;;;;5008969;28;20786;-76
2020/12/14 09:48:53;;;;;;;6.97;6.27;;;16.30;96.20;;;;;;5009127;28;20468;-76
2020/12/14 09:51:20;;;;;;;6.37;5.63;;;15.30;97.20;;;;;;5009182;28;20461;-76
2020/12/14 09:53:46;;;;;;;7.00;6.20;;;14.60;97.60;;;;;;5008751;28;20524;-76
2020/12/14 09:56:12;;;;;;;6.72;6.13;;;14.10;98.00;;;;;;5008807;28;20493;-76
2020/12/14 09:58:39;;;;;;;6.72;6.10;;;14.00;98.20;;;;;;5008480;28;20292;-76
2020/12/14 10:01:07;;;;;;;6.40;5.80;;;13.70;98.40;;;;;;5009538;28;20198;-76
2020/12/14 10:03:33;;;;;;;6.05;5.45;;;13.40;99.00;;;;;;5008622;28;20227;-76
2020/12/14 10:05:59;;;;;;;5.72;5.22;;;13.30;99.20;;;;;;5008986;28;20221;-76
2020/12/14 10:08:26;;;;;;;6.38;5.78;;;12.70;99.60;;;;;;5009166;28;20243;-76
2020/12/14 10:10:55;;;;;;;7.15;6.00;;;12.60;99.90;;;;;;5007946;28;20294;-76
2020/12/14 10:13:21;;;;;;;7.15;6.22;;;12.00;99.90;;;;;;5008248;28;20226;-76
2020/12/14 10:15:48;;;;;;;6.38;5.75;;;11.30;99.90;;;;;;5008762;28;20705;-76
2020/12/14 10:18:15;;;;;;;6.40;5.70;;;10.70;99.90;;;;;;5008829;28;20209;-76
2020/12/14 10:20:41;;;;;;;5.70;5.20;;;10.10;99.90;;;;;;5007902;28;20298;-76
2020/12/14 10:23:08;;;;;;;6.55;5.88;;;9.80;99.90;;;;;;5007487;28;20241;-76
2020/12/14 10:25:35;;;;;;;6.75;5.85;;;9.40;99.90;;;;;;5008628;28;20202;-76
2020/12/14 10:28:01;;;;;;;7.53;5.95;;;9.20;99.90;;;;;;5008444;28;20206;-76
2020/12/14 10:30:27;;;;;;;7.40;5.30;;;9.10;99.90;;;;;;5008686;28;20210;-76
2020/12/14 10:32:55;;;;;;;7.60;5.97;;;9.10;99.90;;;;;;5008052;28;20226;-76
2020/12/14 10:35:21;;;;;;;6.10;5.50;;;8.90;99.90;;;;;;5008249;28;20226;-76
2020/12/14 10:37:47;;;;;;;6.82;6.15;;;8.90;99.90;;;;;;5008580;28;20598;-76
2020/12/14 10:40:14;;;;;;;6.57;5.90;;;8.90;99.90;;;;;;5008564;28;20209;-76
2020/12/14 10:42:41;;;;;;;8.65;5.82;;;9.00;99.90;;;;;;5007819;28;20700;-76
2020/12/14 10:45:08;;;;;;;6.43;5.03;;;8.90;99.90;;;;;;5008417;28;20605;-76
2020/12/14 10:47:34;;;;;;;6.30;5.72;;;8.80;99.90;;;;;;5006925;28;20213;-76
2020/12/14 10:50:01;;;;;;;7.38;5.63;;;8.70;99.90;;;;;;5008226;28;20203;-76
2020/12/14 10:52:27;;;;;;;8.35;6.03;;;8.70;99.90;;;;;;5007708;28;20227;-76
2020/12/14 10:54:54;;;;;;;5.53;4.55;;;8.50;99.90;;;;;;5008071;28;20572;-76
2020/12/14 10:57:20;;;;;;;6.97;5.20;;;8.40;99.90;;;;;;5008643;28;20227;-76
2020/12/14 10:59:46;;;;;;;6.60;5.53;;;8.10;99.90;;;;;;5007862;28;20214;-76
2020/12/14 11:02:13;;;;;;;7.28;5.60;;;8.00;99.90;;;;;;5007783;28;20222;-76
2020/12/14 11:04:39;;;;;;;5.63;5.03;;;7.90;99.90;;;;;;5008164;28;20202;-76
2020/12/14 11:07:08;;;;;;;6.05;5.45;;;7.80;99.90;;;;;;5008119;28;20205;-76
2020/12/14 11:09:34;;;;;;;6.40;5.22;;;7.90;99.90;;;;;;5008257;28;20772;-76
2020/12/14 11:12:04;;;;;;;7.18;5.15;;;8.00;99.90;;;;;;5006856;28;20214;-76
2020/12/14 11:14:31;;;;;;;6.07;5.45;;;8.10;99.90;;;;;;5008246;28;20202;-76
2020/12/14 11:16:57;;;;;;;6.57;4.97;;;8.00;99.90;;;;;;5008002;28;20225;-76
2020/12/14 11:19:23;;;;;;;5.32;4.82;;;8.00;99.90;;;;;;5003557;28;20199;-76
2020/12/14 11:21:53;;;;;;;5.40;4.80;;;8.00;99.90;;;;;;4991443;28;20195;-75
2020/12/14 11:26:49;;;;;;;6.05;5.30;;;8.10;99.90;;;;;;4997683;28;20745;-77
2020/12/14 11:29:15;;;;;;;5.55;4.30;;;8.30;99.90;;;;;;4998608;28;20196;-77
2020/12/14 11:31:42;;;;;;;6.72;4.70;;;8.30;99.90;;;;;;4998137;28;20563;-77
2020/12/14 11:34:08;;;;;;;8.88;5.50;;;8.40;99.90;;;;;;5001360;28;20219;-77
2020/12/14 11:36:35;;;;;;;5.88;5.28;;;8.50;99.90;;;;;;4999885;28;20219;-77
2020/12/14 11:39:01;;;;;;;6.10;4.72;;;8.70;99.90;;;;;;5000960;28;20202;-77
2020/12/14 11:41:29;;;;;;;5.40;4.90;;;8.80;99.90;;;;;;5000540;28;20313;-77
2020/12/14 11:43:56;;;;;;;6.70;5.03;;;9.00;99.90;;;;;;5001129;28;20298;-77
2020/12/14 11:46:22;;;;;;;6.38;4.78;;;9.20;99.90;;;;;;5001128;28;20198;-76
2020/12/14 11:48:49;;;;;;;4.90;4.38;;;9.30;99.90;;;;;;5000253;28;20207;-76
2020/12/14 11:51:15;;;;;;;6.55;5.25;;;9.40;99.90;;;;;;5001405;28;20717;-77
2020/12/14 11:53:42;;;;;;;4.60;4.20;;;9.30;99.90;;;;;;4999828;28;20218;-77
2020/12/14 11:56:08;;;;;;;5.47;4.20;;;9.30;99.90;;;;;;5000287;28;20223;-77
2020/12/14 11:58:34;;;;;;;4.70;4.25;;;9.30;99.90;;;;;;5001535;28;20199;-77
2020/12/14 12:01:01;;;;;;;4.50;4.10;;;9.30;99.90;;;;;;4999765;28;20663;-76
2020/12/14 12:03:27;;;;;;;4.72;4.10;;;9.30;99.90;;;;;;4999802;28;20321;-76
2020/12/14 12:05:56;;;;;;;5.38;4.50;;;9.30;99.90;;;;;;4999280;28;20196;-76
2020/12/14 12:08:22;;;;;;;5.18;4.13;;;9.20;99.90;;;;;;5001070;28;20195;-77
2020/12/14 12:10:49;;;;;;;4.72;4.30;;;9.20;99.90;;;;;;5009567;28;20295;-77
2020/12/14 12:13:15;;;;;;;5.38;4.80;;;9.40;99.90;;;;;;5010098;28;20599;-76
2020/12/14 12:15:41;;;;;;;4.53;3.58;;;9.50;99.90;;;;;;5009813;28;20225;-76
2020/12/14 12:18:08;;;;;;;4.55;3.55;;;9.60;99.90;;;;;;5010630;28;20670;-76
2020/12/14 12:20:35;;;;;;;3.90;3.60;;;9.70;99.90;;;;;;5010509;28;20678;-76
2020/12/14 12:23:01;;;;;;;3.95;3.65;;;9.90;99.90;;;;;;5009809;28;20313;-77
2020/12/14 12:25:28;;;;;;;4.45;3.92;;;10.10;99.90;;;;;;5010685;28;20206;-77
2020/12/14 12:27:55;;;;;;;4.20;3.80;;;10.30;99.90;;;;;;5010022;28;20203;-76
2020/12/14 12:30:21;;;;;;;5.55;3.50;;;10.40;99.90;;;;;;5010627;28;20228;-77
2020/12/14 12:32:47;;;;;;;5.05;4.10;;;10.70;99.90;;;;;;5009741;28;20237;-77
2020/12/14 12:35:14;;;;;;;6.22;4.25;;;10.80;99.90;;;;;;5010466;28;20202;-77
2020/12/14 12:37:41;;;;;;;4.75;3.30;;;11.00;99.90;;;;;;5009733;28;20657;-77
2020/12/14 12:40:08;;;;;;;4.20;3.50;;;11.00;99.90;;;;;;5009764;28;20203;-77
2020/12/14 12:42:34;;;;;;;4.15;3.72;;;11.00;99.90;;;;;;5010126;28;20321;-75
2020/12/14 12:45:01;;;;;;;3.55;2.90;;;11.10;99.90;;;;;;5009704;28;20206;-75
2020/12/14 12:47:27;;;;;;;3.10;2.80;;;11.10;99.90;;;;;;5010195;28;20198;-75
2020/12/14 12:49:53;;;;;;;3.58;3.20;;;11.00;99.90;;;;;;5010169;28;20490;-76
2020/12/14 12:52:20;;;;;;;4.88;3.40;;;11.00;99.90;;;;;;5009125;28;20238;-76
2020/12/14 12:54:47;;;;;;;2.92;2.63;;;11.00;99.90;;;;;;5009864;28;20202;-77
2020/12/14 12:57:15;;;;;;;3.88;2.90;;;11.10;99.90;;;;;;5009439;28;20230;-77
2020/12/14 12:59:41;;;;;;;3.38;3.03;;;11.50;99.90;;;;;;5009926;28;20269;-77